createdAt,value
2023-02-01T00:00:14.681Z,-3.44
2023-02-01T00:02:42.568Z,-3.42
2023-02-01T00:05:11.287Z,-3.40
2023-02-01T00:07:39.911Z,-3.41
2023-02-01T00:10:09.581Z,-3.36
2023-02-01T00:12:38.988Z,-3.35
2023-02-01T00:15:07.766Z,-3.32
2023-02-01T00:17:35.606Z,-3.30
2023-02-01T00:20:04.185Z,-3.32
2023-02-01T00:22:32.114Z,-3.32
2023-02-01T00:25:00.095Z,-3.27
2023-02-01T00:27:27.967Z,-3.22
2023-02-01T00:29:57.904Z,-3.17
2023-02-01T00:32:25.574Z,-3.18
2023-02-01T00:34:53.498Z,-3.16
2023-02-01T00:37:21.309Z,-3.12
2023-02-01T00:39:49.250Z,-3.08
2023-02-01T00:42:17.184Z,-3.02
2023-02-01T00:44:45.036Z,-3.01
2023-02-01T00:47:14.246Z,-3.02
2023-02-01T00:49:42.191Z,-3.06
2023-02-01T00:52:10.122Z,-3.05
2023-02-01T00:54:38.801Z,-3.00
2023-02-01T00:57:06.607Z,-2.96
2023-02-01T00:59:34.513Z,-2.94
2023-02-01T01:02:02.441Z,-2.89
2023-02-01T01:04:31.818Z,-2.81
2023-02-01T01:06:59.677Z,-2.77
2023-02-01T01:09:27.600Z,-2.74
2023-02-01T01:11:55.395Z,-2.73
2023-02-01T01:14:23.257Z,-2.69
2023-02-01T01:16:52.035Z,-2.64
2023-02-01T01:19:19.953Z,-2.66
2023-02-01T01:21:49.344Z,-2.62
2023-02-01T01:24:17.299Z,-2.60
2023-02-01T01:26:45.193Z,-2.55
2023-02-01T01:29:13.055Z,-2.53
2023-02-01T01:31:40.930Z,-2.51
2023-02-01T01:34:08.873Z,-2.52
2023-02-01T01:36:36.809Z,-2.56
2023-02-01T01:39:06.111Z,-2.55
2023-02-01T01:41:34.768Z,-2.51
2023-02-01T01:44:05.175Z,-2.50
2023-02-01T01:46:36.538Z,-2.52
2023-02-01T01:49:10.100Z,-2.51
2023-02-01T01:51:41.118Z,-2.46
2023-02-01T01:54:18.157Z,-2.47
2023-02-01T01:56:51.302Z,-2.46
2023-02-01T01:59:19.689Z,-2.42
2023-02-01T02:01:48.423Z,-2.42
2023-02-01T02:04:16.445Z,-2.42
2023-02-01T02:06:49.605Z,-2.41
2023-02-01T02:09:19.059Z,-2.39
2023-02-01T02:11:46.910Z,-2.41
2023-02-01T02:14:17.681Z,-2.41
2023-02-01T02:17:03.739Z,-2.45
2023-02-01T02:22:14.510Z,-2.54
2023-02-01T02:25:20.261Z,-2.53
2023-02-01T02:28:02.491Z,-2.48
2023-02-01T02:31:01.350Z,-2.44
2023-02-01T02:34:00.292Z,-2.40
2023-02-01T02:36:45.808Z,-2.36
2023-02-01T02:39:23.663Z,-2.30
2023-02-01T02:42:17.970Z,-2.26
2023-02-01T02:45:09.626Z,-2.24
2023-02-01T02:47:47.578Z,-2.20
2023-02-01T02:50:54.718Z,-2.19
2023-02-01T02:53:45.731Z,-2.21
2023-02-01T02:56:32.301Z,-2.22
2023-02-01T02:59:18.492Z,-2.16
2023-02-01T03:02:03.852Z,-2.12
2023-02-01T03:06:44.397Z,-2.15
2023-02-01T03:09:18.617Z,-2.18
2023-02-01T03:12:06.971Z,-2.17
2023-02-01T03:14:37.487Z,-2.13
2023-02-01T03:17:10.863Z,-2.09
2023-02-01T03:19:49.462Z,-2.05
2023-02-01T03:22:23.233Z,-2.06
2023-02-01T03:24:55.578Z,-2.10
2023-02-01T03:27:29.261Z,-2.14
2023-02-01T03:30:02.211Z,-2.08
2023-02-01T03:32:30.467Z,-2.03
2023-02-01T03:34:58.754Z,-1.98
2023-02-01T03:37:30.007Z,-1.95
2023-02-01T03:40:03.227Z,-1.94
2023-02-01T03:42:37.641Z,-1.94
2023-02-01T03:45:11.945Z,-1.93
2023-02-01T03:47:44.972Z,-1.98
2023-02-01T03:50:17.708Z,-2.01
2023-02-01T03:52:50.908Z,-1.93
2023-02-01T03:55:21.333Z,-1.91
2023-02-01T03:57:54.903Z,-1.89
2023-02-01T04:00:27.396Z,-1.83
2023-02-01T04:02:55.836Z,-1.78
2023-02-01T04:05:24.748Z,-1.76
2023-02-01T04:07:55.388Z,-1.73
2023-02-01T04:10:27.074Z,-1.71
2023-02-01T04:12:58.382Z,-1.72
2023-02-01T04:15:26.854Z,-1.72
2023-02-01T04:17:54.828Z,-1.72
2023-02-01T04:20:23.073Z,-1.65
2023-02-01T04:22:51.246Z,-1.63
2023-02-01T04:25:20.652Z,-1.59
2023-02-01T04:27:48.673Z,-1.55
2023-02-01T04:30:16.838Z,-1.57
2023-02-01T04:32:44.905Z,-1.60
2023-02-01T04:35:12.817Z,-1.62
2023-02-01T04:37:40.805Z,-1.58
2023-02-01T04:40:10.263Z,-1.57
2023-02-01T04:42:39.576Z,-1.56
2023-02-01T04:45:09.890Z,-1.53
2023-02-01T04:47:37.884Z,-1.49
2023-02-01T04:50:06.838Z,-1.47
2023-02-01T04:52:34.828Z,-1.44
2023-02-01T04:55:03.983Z,-1.40
2023-02-01T04:57:31.815Z,-1.39
2023-02-01T05:00:01.172Z,-1.41
2023-02-01T05:02:29.110Z,-1.38
2023-02-01T05:04:57.064Z,-1.36
2023-02-01T05:07:25.020Z,-1.34
2023-02-01T05:09:52.962Z,-1.29
2023-02-01T05:12:38.446Z,-1.24
2023-02-01T05:15:08.892Z,-1.26
2023-02-01T05:17:36.804Z,-1.26
2023-02-01T05:20:08.550Z,-1.23
2023-02-01T05:22:36.536Z,-1.24
2023-02-01T05:25:05.419Z,-1.25
2023-02-01T05:27:34.671Z,-1.22
2023-02-01T05:30:02.498Z,-1.21
2023-02-01T05:32:31.862Z,-1.17
2023-02-01T05:34:59.885Z,-1.15
2023-02-01T05:37:28.205Z,-1.13
2023-02-01T05:39:56.126Z,-1.08
2023-02-01T05:42:24.049Z,-1.08
2023-02-01T05:44:51.961Z,-1.11
2023-02-01T05:47:21.294Z,-1.09
2023-02-01T05:49:50.662Z,-1.08
2023-02-01T05:52:20.335Z,-1.08
2023-02-01T05:54:48.861Z,-1.08
2023-02-01T05:57:17.394Z,-1.06
2023-02-01T05:59:46.641Z,-1.06
2023-02-01T06:02:14.827Z,-1.05
2023-02-01T06:04:42.842Z,-1.07
2023-02-01T06:07:13.961Z,-1.06
2023-02-01T06:09:45.023Z,-1.04
2023-02-01T06:12:15.784Z,-1.03
2023-02-01T06:14:44.393Z,-1.02
2023-02-01T06:17:12.306Z,-0.98
2023-02-01T06:19:41.571Z,-0.97
2023-02-01T06:22:10.963Z,-0.96
2023-02-01T06:24:39.241Z,-0.92
2023-02-01T06:27:07.843Z,-0.91
2023-02-01T06:29:35.891Z,-0.94
2023-02-01T06:32:04.162Z,-0.96
2023-02-01T06:34:32.248Z,-0.92
2023-02-01T06:37:00.241Z,-0.92
2023-02-01T06:39:29.589Z,-0.91
2023-02-01T06:41:57.447Z,-0.91
2023-02-01T06:44:25.402Z,-0.89
2023-02-01T06:46:53.455Z,-0.91
2023-02-01T06:49:21.348Z,-0.91
2023-02-01T06:51:52.324Z,-0.92
2023-02-01T06:54:20.603Z,-0.91
2023-02-01T06:56:50.038Z,-0.89
2023-02-01T06:59:17.967Z,-0.89
2023-02-01T07:01:45.973Z,-0.88
2023-02-01T07:04:14.488Z,-0.89
2023-02-01T07:06:42.581Z,-0.90
2023-02-01T07:09:10.809Z,-0.90
2023-02-01T07:11:41.976Z,-0.87
2023-02-01T07:14:11.586Z,-0.91
2023-02-01T07:16:39.851Z,-0.89
2023-02-01T07:19:07.787Z,-0.90
2023-02-01T07:21:35.714Z,-0.90
2023-02-01T07:24:03.650Z,-0.89
2023-02-01T07:26:31.733Z,-0.93
2023-02-01T07:28:59.799Z,-0.94
2023-02-01T07:31:30.034Z,-0.93
2023-02-01T07:33:59.239Z,-0.89
2023-02-01T07:36:27.255Z,-0.92
2023-02-01T07:38:56.861Z,-0.92
2023-02-01T07:41:27.596Z,-0.93
2023-02-01T07:43:55.847Z,-0.94
2023-02-01T07:46:23.918Z,-0.95
2023-02-01T07:48:53.184Z,-0.94
2023-02-01T07:51:21.087Z,-0.90
2023-02-01T07:53:48.936Z,-0.86
2023-02-01T07:56:18.963Z,-0.82
2023-02-01T07:58:49.384Z,-0.86
2023-02-01T08:01:25.558Z,-0.84
2023-02-01T08:03:58.039Z,-0.82
2023-02-01T08:06:27.123Z,-0.77
2023-02-01T08:08:56.106Z,-0.74
2023-02-01T08:11:25.134Z,-0.72
2023-02-01T08:13:53.628Z,-0.70
2023-02-01T08:16:23.574Z,-0.65
2023-02-01T08:18:51.851Z,-0.66
2023-02-01T08:21:23.013Z,-0.64
2023-02-01T08:23:51.532Z,-0.64
2023-02-01T08:26:21.766Z,-0.63
2023-02-01T08:28:52.570Z,-0.61
2023-02-01T08:31:22.394Z,-0.60
2023-02-01T08:33:52.806Z,-0.60
2023-02-01T08:36:23.179Z,-0.62
2023-02-01T08:38:51.115Z,-0.65
2023-02-01T08:41:21.150Z,-0.66
2023-02-01T08:43:49.720Z,-0.71
2023-02-01T08:46:18.647Z,-0.69
2023-02-01T08:48:47.856Z,-0.71
2023-02-01T08:51:17.545Z,-0.70
2023-02-01T08:53:47.172Z,-0.66
2023-02-01T08:56:16.976Z,-0.65
2023-02-01T08:58:44.971Z,-0.67
2023-02-01T09:01:15.639Z,-0.66
2023-02-01T09:03:43.752Z,-0.66
2023-02-01T09:06:15.071Z,-0.67
2023-02-01T09:08:43.854Z,-0.69
2023-02-01T09:11:15.579Z,-0.68
2023-02-01T09:13:43.862Z,-0.64
2023-02-01T09:16:11.951Z,-0.65
2023-02-01T09:18:50.348Z,-0.64
2023-02-01T09:21:24.272Z,-0.65
2023-02-01T09:23:53.160Z,-0.63
2023-02-01T09:26:31.558Z,-0.63
2023-02-01T09:29:00.467Z,-0.60
2023-02-01T09:31:28.565Z,-0.53
2023-02-01T09:33:56.635Z,-0.51
2023-02-01T09:36:24.961Z,-0.47
2023-02-01T09:38:55.933Z,-0.43
2023-02-01T09:41:38.861Z,-0.44
2023-02-01T09:44:17.759Z,-0.43
2023-02-01T09:46:45.796Z,-0.38
2023-02-01T09:49:19.958Z,-0.40
2023-02-01T09:51:50.610Z,-0.42
2023-02-01T09:54:20.726Z,-0.43
2023-02-01T09:56:52.032Z,-0.51
2023-02-01T09:59:34.541Z,-0.48
2023-02-01T10:02:05.766Z,-0.43
2023-02-01T10:04:34.634Z,-0.42
2023-02-01T10:07:20.746Z,-0.41
2023-02-01T10:10:00.453Z,-0.36
2023-02-01T10:13:02.163Z,-0.34
2023-02-01T10:15:42.357Z,-0.34
2023-02-01T10:18:26.033Z,-0.32
2023-02-01T10:21:04.432Z,-0.28
2023-02-01T10:23:56.143Z,-0.26
2023-02-01T10:26:25.646Z,-0.25
2023-02-01T10:28:58.314Z,-0.26
2023-02-01T10:31:30.377Z,-0.23
2023-02-01T10:34:00.483Z,-0.22
2023-02-01T10:36:31.449Z,-0.24
2023-02-01T10:39:00.937Z,-0.23
2023-02-01T10:41:33.770Z,-0.23
2023-02-01T10:44:07.734Z,-0.23
2023-02-01T10:46:36.304Z,-0.22
2023-02-01T10:49:07.548Z,-0.22
2023-02-01T10:51:45.753Z,-0.19
2023-02-01T10:54:18.509Z,-0.17
2023-02-01T10:56:47.636Z,-0.15
2023-02-01T10:59:20.088Z,-0.14
2023-02-01T11:01:50.610Z,-0.07
2023-02-01T11:04:21.092Z,-0.05
2023-02-01T11:06:53.082Z,-0.03
2023-02-01T11:09:23.695Z,0.01
2023-02-01T11:12:24.495Z,0.06
2023-02-01T11:15:00.935Z,0.11
2023-02-01T11:17:34.331Z,0.17
2023-02-01T11:20:03.778Z,0.18
2023-02-01T11:22:31.891Z,0.20
2023-02-01T11:25:03.490Z,0.20
2023-02-01T11:27:31.409Z,0.20
2023-02-01T11:30:05.020Z,0.20
2023-02-01T11:32:33.403Z,0.19
2023-02-01T11:35:04.560Z,0.17
2023-02-01T11:37:37.861Z,0.16
2023-02-01T11:40:25.265Z,0.15
2023-02-01T11:42:58.184Z,0.19
2023-02-01T11:45:30.287Z,0.21
2023-02-01T11:48:00.475Z,0.25
2023-02-01T11:50:35.448Z,0.31
2023-02-01T11:53:28.031Z,0.35
2023-02-01T11:56:06.240Z,0.36
2023-02-01T11:59:09.999Z,0.39
2023-02-01T12:02:27.618Z,0.40
2023-02-01T12:05:27.051Z,0.42
2023-02-01T12:08:19.616Z,0.45
2023-02-01T12:10:58.163Z,0.45
2023-02-01T12:13:36.954Z,0.47
2023-02-01T12:16:18.352Z,0.48
2023-02-01T12:19:16.690Z,0.52
2023-02-01T12:21:58.383Z,0.56
2023-02-01T12:24:55.877Z,0.57
2023-02-01T12:27:47.910Z,0.59
2023-02-01T12:30:36.001Z,0.60
2023-02-01T12:33:17.870Z,0.65
2023-02-01T12:36:12.185Z,0.67
2023-02-01T12:38:50.013Z,0.71
2023-02-01T12:41:45.599Z,0.69
2023-02-01T12:44:19.723Z,0.66
2023-02-01T12:46:51.971Z,0.62
2023-02-01T12:49:26.397Z,0.64
2023-02-01T12:52:02.909Z,0.66
2023-02-01T12:54:36.975Z,0.67
2023-02-01T12:57:09.018Z,0.67
2023-02-01T12:59:41.082Z,0.67
2023-02-01T13:02:18.294Z,0.69
2023-02-01T13:04:59.839Z,0.68
2023-02-01T13:07:33.435Z,0.66
2023-02-01T13:10:07.533Z,0.68
2023-02-01T13:12:39.659Z,0.66
2023-02-01T13:15:14.712Z,0.70
2023-02-01T13:17:44.464Z,0.68
2023-02-01T13:20:22.395Z,0.71
2023-02-01T13:23:00.492Z,0.67
2023-02-01T13:25:35.992Z,0.66
2023-02-01T13:28:08.835Z,0.67
2023-02-01T13:30:50.009Z,0.66
2023-02-01T13:33:54.878Z,0.68
2023-02-01T13:36:38.002Z,0.69
2023-02-01T13:39:35.163Z,0.67
2023-02-01T13:42:05.696Z,0.69
2023-02-01T13:44:36.493Z,0.67
2023-02-01T13:47:15.432Z,0.65
2023-02-01T13:49:43.479Z,0.66
2023-02-01T13:52:27.151Z,0.65
2023-02-01T13:55:16.616Z,0.65
2023-02-01T13:57:46.019Z,0.63
2023-02-01T14:00:27.454Z,0.62
2023-02-01T14:03:11.164Z,0.62
2023-02-01T14:06:03.901Z,0.61
2023-02-01T14:09:08.971Z,0.63
2023-02-01T14:11:41.881Z,0.63
2023-02-01T14:14:48.120Z,0.62
2023-02-01T14:17:38.051Z,0.62
2023-02-01T14:20:44.713Z,0.61
2023-02-01T14:23:22.372Z,0.62
2023-02-01T14:26:09.271Z,0.62
2023-02-01T14:28:44.919Z,0.62
2023-02-01T14:31:18.851Z,0.62
2023-02-01T14:33:48.124Z,0.59
2023-02-01T14:36:17.562Z,0.58
2023-02-01T14:38:51.917Z,0.55
2023-02-01T14:41:34.293Z,0.54
2023-02-01T14:44:27.951Z,0.50
2023-02-01T14:47:10.160Z,0.48
2023-02-01T14:49:44.877Z,0.46
2023-02-01T14:52:18.335Z,0.45
2023-02-01T14:54:51.515Z,0.41
2023-02-01T14:57:22.412Z,0.39
2023-02-01T14:59:55.241Z,0.39
2023-02-01T15:02:27.994Z,0.32
2023-02-01T15:04:57.812Z,0.33
2023-02-01T15:07:28.322Z,0.29
2023-02-01T15:10:00.200Z,0.28
2023-02-01T15:12:32.869Z,0.30
2023-02-01T15:15:15.899Z,0.30
2023-02-01T15:17:43.780Z,0.29
2023-02-01T15:20:18.839Z,0.29
2023-02-01T15:22:55.623Z,0.29
2023-02-01T15:25:25.639Z,0.29
2023-02-01T15:27:54.331Z,0.30
2023-02-01T15:30:26.290Z,0.28
2023-02-01T15:33:08.578Z,0.24
2023-02-01T15:35:48.042Z,0.24
2023-02-01T15:38:36.689Z,0.22
2023-02-01T15:41:08.674Z,0.20
2023-02-01T15:43:39.804Z,0.19
2023-02-01T15:46:13.305Z,0.17
2023-02-01T15:48:50.620Z,0.16
2023-02-01T15:51:21.386Z,0.14
2023-02-01T15:53:52.608Z,0.10
2023-02-01T15:56:26.287Z,0.05
2023-02-01T15:58:57.482Z,0.04
2023-02-01T16:01:27.049Z,0.03
2023-02-01T16:04:06.633Z,0.03
2023-02-01T16:06:35.506Z,0.01
2023-02-01T16:09:12.559Z,0.02
2023-02-01T16:11:50.319Z,-0.01
2023-02-01T16:14:18.214Z,-0.01
2023-02-01T16:16:47.568Z,-0.06
2023-02-01T16:19:15.494Z,-0.05
2023-02-01T16:21:43.416Z,-0.05
2023-02-01T16:24:11.477Z,-0.05
2023-02-01T16:26:39.748Z,-0.07
2023-02-01T16:29:08.114Z,-0.08
2023-02-01T16:31:38.008Z,-0.06
2023-02-01T16:34:07.981Z,-0.08
2023-02-01T16:36:36.183Z,-0.07
2023-02-01T16:39:04.674Z,-0.07
2023-02-01T16:41:32.693Z,-0.08
2023-02-01T16:44:00.655Z,-0.10
2023-02-01T16:46:34.444Z,-0.11
2023-02-01T16:49:03.305Z,-0.12
2023-02-01T16:51:34.707Z,-0.16
2023-02-01T16:54:03.546Z,-0.14
2023-02-01T16:56:36.784Z,-0.16
2023-02-01T16:59:05.091Z,-0.13
2023-02-01T17:01:33.059Z,-0.15
2023-02-01T17:04:00.991Z,-0.13
2023-02-01T17:06:30.197Z,-0.15
2023-02-01T17:09:03.655Z,-0.11
2023-02-01T17:11:31.938Z,-0.11
2023-02-01T17:14:11.990Z,-0.12
2023-02-01T17:16:39.677Z,-0.15
2023-02-01T17:19:15.025Z,-0.14
2023-02-01T17:21:47.219Z,-0.14
2023-02-01T17:24:17.134Z,-0.13
2023-02-01T17:26:45.439Z,-0.14
2023-02-01T17:29:13.870Z,-0.14
2023-02-01T17:31:44.061Z,-0.15
2023-02-01T17:34:12.599Z,-0.14
2023-02-01T17:36:40.956Z,-0.14
2023-02-01T17:39:09.398Z,-0.15
2023-02-01T17:41:41.648Z,-0.16
2023-02-01T17:44:11.898Z,-0.20
2023-02-01T17:46:42.797Z,-0.19
2023-02-01T17:49:13.575Z,-0.21
2023-02-01T17:51:42.067Z,-0.19
2023-02-01T17:54:13.604Z,-0.16
2023-02-01T17:56:42.932Z,-0.13
2023-02-01T17:59:11.540Z,-0.13
2023-02-01T18:01:40.886Z,-0.13
2023-02-01T18:04:13.439Z,-0.13
2023-02-01T18:06:41.643Z,-0.14
2023-02-01T18:09:09.660Z,-0.12
2023-02-01T18:11:37.556Z,-0.10
2023-02-01T18:14:06.866Z,-0.11
2023-02-01T18:16:37.143Z,-0.12
2023-02-01T18:19:05.249Z,-0.11
2023-02-01T18:21:35.400Z,-0.10
2023-02-01T18:24:03.134Z,-0.09
2023-02-01T18:26:31.700Z,-0.06
2023-02-01T18:28:59.722Z,-0.05
2023-02-01T18:31:31.649Z,-0.03
2023-02-01T18:34:01.156Z,-0.03
2023-02-01T18:36:30.522Z,-0.06
2023-02-01T18:38:58.480Z,-0.04
2023-02-01T18:41:27.205Z,-0.07
2023-02-01T18:43:55.131Z,-0.08
2023-02-01T18:46:23.212Z,-0.09
2023-02-01T18:48:52.593Z,-0.08
2023-02-01T18:51:23.451Z,-0.11
2023-02-01T18:53:51.708Z,-0.11
2023-02-01T18:56:19.726Z,-0.12
2023-02-01T18:58:47.867Z,-0.14
2023-02-01T19:01:19.618Z,-0.12
2023-02-01T19:03:51.543Z,-0.13
2023-02-01T19:06:26.364Z,-0.12
2023-02-01T19:08:56.132Z,-0.12
2023-02-01T19:11:24.156Z,-0.12
2023-02-01T19:13:52.580Z,-0.13
2023-02-01T19:16:20.479Z,-0.13
2023-02-01T19:18:52.088Z,-0.12
2023-02-01T19:21:20.000Z,-0.12
2023-02-01T19:23:49.313Z,-0.13
2023-02-01T19:26:19.477Z,-0.12
2023-02-01T19:28:48.949Z,-0.13
2023-02-01T19:31:17.829Z,-0.16
2023-02-01T19:33:46.308Z,-0.16
2023-02-01T19:36:14.194Z,-0.17
2023-02-01T19:38:42.126Z,-0.17
2023-02-01T19:41:11.425Z,-0.16
2023-02-01T19:43:39.772Z,-0.16
2023-02-01T19:46:07.705Z,-0.16
2023-02-01T19:48:35.637Z,-0.13
2023-02-01T19:51:04.789Z,-0.16
2023-02-01T19:53:32.776Z,-0.16
2023-02-01T19:56:01.761Z,-0.17
2023-02-01T19:58:31.297Z,-0.21
2023-02-01T20:00:59.733Z,-0.21
2023-02-01T20:03:28.008Z,-0.25
2023-02-01T20:05:57.343Z,-0.24
2023-02-01T20:08:26.191Z,-0.27
2023-02-01T20:10:54.289Z,-0.30
2023-02-01T20:13:22.136Z,-0.34
2023-02-01T20:15:57.253Z,-0.37
2023-02-01T20:18:25.331Z,-0.37
2023-02-01T20:20:57.626Z,-0.42
2023-02-01T20:23:25.598Z,-0.43
2023-02-01T20:25:54.780Z,-0.48
2023-02-01T20:28:22.727Z,-0.54
2023-02-01T20:30:52.132Z,-0.58
2023-02-01T20:33:22.507Z,-0.63
2023-02-01T20:35:50.396Z,-0.62
2023-02-01T20:38:18.347Z,-0.67
2023-02-01T20:40:46.809Z,-0.67
2023-02-01T20:43:14.780Z,-0.71
2023-02-01T20:45:42.917Z,-0.70
2023-02-01T20:48:13.210Z,-0.76
2023-02-01T20:50:41.078Z,-0.81
2023-02-01T20:53:12.678Z,-0.84
2023-02-01T20:55:40.687Z,-0.87
2023-02-01T20:58:08.606Z,-0.87
2023-02-01T21:00:36.801Z,-0.92
2023-02-01T21:03:04.689Z,-0.96
2023-02-01T21:05:40.998Z,-0.97
2023-02-01T21:08:09.970Z,-0.98
2023-02-01T21:10:38.679Z,-1.00
2023-02-01T21:13:07.395Z,-1.01
2023-02-01T21:15:36.209Z,-1.00
2023-02-01T21:18:05.737Z,-1.05
2023-02-01T21:20:35.106Z,-1.03
2023-02-01T21:23:02.955Z,-1.05
2023-02-01T21:25:30.836Z,-1.03
2023-02-01T21:27:58.976Z,-1.00
2023-02-01T21:30:26.859Z,-0.96
2023-02-01T21:32:56.461Z,-0.95
2023-02-01T21:35:24.734Z,-0.94
2023-02-01T21:37:54.220Z,-0.94
2023-02-01T21:40:22.149Z,-0.93
2023-02-01T21:42:50.088Z,-0.92
2023-02-01T21:45:18.737Z,-0.91
2023-02-01T21:47:48.886Z,-0.89
2023-02-01T21:50:19.427Z,-0.89
2023-02-01T21:52:47.655Z,-0.88
2023-02-01T21:55:17.376Z,-0.86
2023-02-01T21:57:46.249Z,-0.86
2023-02-01T22:00:15.400Z,-0.86
2023-02-01T22:02:43.294Z,-0.84
2023-02-01T22:05:11.702Z,-0.84
2023-02-01T22:07:39.579Z,-0.85
2023-02-01T22:10:07.927Z,-0.84
2023-02-01T22:12:37.352Z,-0.86
2023-02-01T22:15:05.790Z,-0.84
2023-02-01T22:17:33.647Z,-0.85
2023-02-01T22:20:01.580Z,-0.86
2023-02-01T22:22:29.467Z,-0.88
2023-02-01T22:24:57.556Z,-0.92
2023-02-01T22:27:27.290Z,-0.92
2023-02-01T22:30:15.675Z,-0.94
2023-02-01T22:32:43.669Z,-0.94
2023-02-01T22:35:11.634Z,-0.94
2023-02-01T22:37:39.551Z,-0.95
2023-02-01T22:40:08.528Z,-0.98
2023-02-01T22:42:36.442Z,-0.96
2023-02-01T22:45:04.726Z,-0.98
2023-02-01T22:47:34.015Z,-0.95
2023-02-01T22:50:02.255Z,-0.94
2023-02-01T22:52:30.777Z,-0.93
2023-02-01T22:54:58.626Z,-0.95
2023-02-01T22:57:26.506Z,-0.96
2023-02-01T22:59:54.463Z,-0.95
2023-02-01T23:02:22.365Z,-0.96
2023-02-01T23:05:51.174Z,-0.95
2023-02-01T23:08:20.457Z,-0.99
2023-02-01T23:10:48.369Z,-0.96
2023-02-01T23:13:16.263Z,-0.98
2023-02-01T23:15:44.083Z,-1.03
2023-02-01T23:18:12.062Z,-0.99
2023-02-01T23:20:41.372Z,-0.98
2023-02-01T23:23:09.203Z,-1.01
2023-02-01T23:25:38.529Z,-1.03
2023-02-01T23:28:07.992Z,-1.04
2023-02-01T23:30:36.206Z,-1.05
2023-02-01T23:33:04.152Z,-1.07
2023-02-01T23:35:32.048Z,-1.08
2023-02-01T23:37:59.915Z,-1.09
2023-02-01T23:40:30.097Z,-1.14
2023-02-01T23:43:13.157Z,-1.15
2023-02-01T23:45:41.064Z,-1.15
2023-02-01T23:48:08.909Z,-1.16
2023-02-01T23:50:36.763Z,-1.18
2023-02-01T23:53:04.680Z,-1.15
2023-02-01T23:55:35.672Z,-1.16
2023-02-01T23:58:07.840Z,-1.21
